createdAt,value
2022-09-07T00:01:09.006Z,100150.88
2022-09-07T00:04:12.100Z,100147.97
2022-09-07T00:07:14.824Z,100136.56
2022-09-07T00:10:17.755Z,100147.78
2022-09-07T00:13:20.483Z,100143.84
2022-09-07T00:16:29.340Z,100142.19
2022-09-07T00:19:32.047Z,100150.44
2022-09-07T00:22:35.350Z,100139.25
2022-09-07T00:25:39.645Z,100145.25
2022-09-07T00:28:43.454Z,100141.53
2022-09-07T00:31:46.057Z,100140.50
2022-09-07T00:34:50.840Z,100132.63
2022-09-07T00:37:53.451Z,100128.87
2022-09-07T00:40:56.472Z,100141.06
2022-09-07T00:44:57.675Z,100139.81
2022-09-07T00:48:08.810Z,100130.88
2022-09-07T00:51:17.326Z,100126.31
2022-09-07T00:54:27.920Z,100131.06
2022-09-07T00:57:31.031Z,100129.41
2022-09-07T01:00:34.980Z,100128.78
2022-09-07T01:03:42.531Z,100135.78
2022-09-07T01:06:45.502Z,100132.03
2022-09-07T01:09:48.336Z,100129.53
2022-09-07T01:12:51.649Z,100118.56
2022-09-07T01:15:54.281Z,100122.25
2022-09-07T01:18:57.231Z,100118.94
2022-09-07T01:22:18.496Z,100115.84
2022-09-07T01:25:36.643Z,100116.00
2022-09-07T01:28:39.844Z,100114.09
2022-09-07T01:32:07.444Z,100115.34
2022-09-07T01:35:42.372Z,100108.91
2022-09-07T01:38:52.504Z,100105.34
2022-09-07T01:41:58.882Z,100118.16
2022-09-07T01:45:04.226Z,100115.47
2022-09-07T01:48:10.266Z,100105.72
2022-09-07T01:51:13.313Z,100109.56
2022-09-07T01:54:23.641Z,100098.16
2022-09-07T01:57:31.316Z,100108.28
2022-09-07T02:00:34.705Z,100106.19
2022-09-07T02:04:11.599Z,100105.97
2022-09-07T02:07:31.075Z,100105.13
2022-09-07T02:10:40.890Z,100111.06
2022-09-07T02:14:05.241Z,100106.09
2022-09-07T02:17:08.044Z,100109.41
2022-09-07T02:20:16.632Z,100109.78
2022-09-07T02:23:22.943Z,100102.94
2022-09-07T02:26:28.313Z,100105.44
2022-09-07T02:29:32.230Z,100102.72
2022-09-07T02:32:34.904Z,100098.37
2022-09-07T02:35:37.831Z,100096.72
2022-09-07T02:38:41.363Z,100086.56
2022-09-07T02:41:45.738Z,100080.97
2022-09-07T02:44:52.075Z,100084.44
2022-09-07T02:48:13.172Z,100087.75
2022-09-07T02:51:22.723Z,100084.84
2022-09-07T02:54:47.821Z,100079.84
2022-09-07T02:58:02.528Z,100079.34
2022-09-07T03:01:23.974Z,100084.34
2022-09-07T03:04:42.009Z,100078.34
2022-09-07T03:08:11.015Z,100081.19
2022-09-07T03:11:14.392Z,100070.03
2022-09-07T03:14:20.069Z,100073.53
2022-09-07T03:17:22.643Z,100079.50
2022-09-07T03:20:25.568Z,100068.75
2022-09-07T03:23:28.143Z,100070.16
2022-09-07T03:26:31.028Z,100071.19
2022-09-07T03:29:33.718Z,100078.81
2022-09-07T03:32:37.646Z,100078.41
2022-09-07T03:35:40.240Z,100073.63
2022-09-07T03:38:43.086Z,100080.03
2022-09-07T03:41:45.614Z,100076.94
2022-09-07T03:44:51.402Z,100081.25
2022-09-07T03:47:54.013Z,100085.41
2022-09-07T03:51:01.925Z,100087.06
2022-09-07T03:54:04.586Z,100089.97
2022-09-07T03:57:07.675Z,100089.97
2022-09-07T04:00:11.177Z,100082.31
2022-09-07T04:03:14.823Z,100077.53
2022-09-07T04:06:18.612Z,100081.44
2022-09-07T04:09:21.251Z,100083.28
2022-09-07T04:12:26.127Z,100102.53
2022-09-07T04:15:29.199Z,100103.34
2022-09-07T04:18:32.386Z,100111.00
2022-09-07T04:21:34.991Z,100106.72
2022-09-07T04:24:37.876Z,100120.34
2022-09-07T04:27:40.454Z,100118.69
2022-09-07T04:30:43.956Z,100113.75
2022-09-07T04:33:48.135Z,100113.31
2022-09-07T04:36:51.051Z,100104.03
2022-09-07T04:39:53.674Z,100115.81
2022-09-07T04:42:56.669Z,100109.22
2022-09-07T04:46:03.078Z,100108.00
2022-09-07T04:49:09.432Z,100118.34
2022-09-07T04:52:12.035Z,100121.22
2022-09-07T04:55:14.982Z,100119.94
2022-09-07T04:58:17.891Z,100123.84
2022-09-07T05:01:23.489Z,100128.59
2022-09-07T05:04:26.171Z,100130.50
2022-09-07T05:07:29.080Z,100119.13
2022-09-07T05:10:32.057Z,100120.28
2022-09-07T05:13:35.316Z,100118.25
2022-09-07T05:16:37.994Z,100112.72
2022-09-07T05:19:41.075Z,100116.72
2022-09-07T05:22:43.657Z,100119.88
2022-09-07T05:25:47.104Z,100125.56
2022-09-07T05:28:50.388Z,100124.78
2022-09-07T05:31:54.798Z,100121.53
2022-09-07T05:34:57.429Z,100127.63
2022-09-07T05:38:00.350Z,100136.56
2022-09-07T05:41:20.075Z,100143.00
2022-09-07T05:47:48.991Z,100140.22
2022-09-07T05:50:52.980Z,100146.44
2022-09-07T05:53:56.376Z,100143.59
2022-09-07T05:56:59.323Z,100149.63
2022-09-07T06:00:02.195Z,100148.59
2022-09-07T06:03:14.813Z,100150.31
2022-09-07T06:06:19.223Z,100152.19
2022-09-07T06:09:21.865Z,100153.66
2022-09-07T06:12:24.703Z,100153.31
2022-09-07T06:15:27.306Z,100143.78
2022-09-07T06:18:31.762Z,100144.41
2022-09-07T06:21:38.426Z,100143.38
2022-09-07T06:24:41.291Z,100132.66
2022-09-07T06:27:43.845Z,100141.34
2022-09-07T06:30:46.726Z,100131.38
2022-09-07T06:33:50.221Z,100135.94
2022-09-07T06:36:53.144Z,100136.56
2022-09-07T06:39:55.925Z,100135.94
2022-09-07T06:42:58.911Z,100146.91
2022-09-07T06:49:25.567Z,100145.00
2022-09-07T06:52:28.298Z,100156.19
2022-09-07T06:55:31.336Z,100146.78
2022-09-07T06:58:38.003Z,100134.53
2022-09-07T07:01:43.418Z,100138.38
2022-09-07T07:04:46.711Z,100136.72
2022-09-07T07:07:49.580Z,100142.28
2022-09-07T07:10:52.566Z,100137.84
2022-09-07T07:13:55.455Z,100144.78
2022-09-07T07:16:58.099Z,100140.75
2022-09-07T07:20:01.034Z,100151.06
2022-09-07T07:23:03.843Z,100149.53
2022-09-07T07:26:12.649Z,100152.78
2022-09-07T07:29:18.515Z,100151.59
2022-09-07T07:32:21.899Z,100145.09
2022-09-07T07:35:24.443Z,100152.69
2022-09-07T07:41:53.802Z,100155.19
2022-09-07T07:48:21.577Z,100145.19
2022-09-07T07:51:24.911Z,100141.84
2022-09-07T07:54:27.465Z,100153.19
2022-09-07T07:57:30.407Z,100145.56
2022-09-07T08:00:52.875Z,100139.28
2022-09-07T08:03:55.850Z,100140.84
2022-09-07T08:06:58.339Z,100138.50
2022-09-07T08:10:01.321Z,100140.19
2022-09-07T08:13:04.369Z,100129.09
2022-09-07T08:16:08.175Z,100125.66
2022-09-07T08:19:10.888Z,100127.72
2022-09-07T08:22:13.816Z,100130.75
2022-09-07T08:25:17.483Z,100143.59
2022-09-07T08:28:26.305Z,100135.16
2022-09-07T08:31:28.978Z,100127.72
2022-09-07T08:34:32.020Z,100128.53
2022-09-07T08:37:34.480Z,100122.53
2022-09-07T08:40:38.068Z,100118.03
2022-09-07T08:43:53.128Z,100118.91
2022-09-07T08:47:00.606Z,100114.63
2022-09-07T08:50:06.745Z,100125.41
2022-09-07T08:53:19.213Z,100120.78
2022-09-07T08:56:36.083Z,100119.97
2022-09-07T08:59:47.717Z,100115.88
2022-09-07T09:06:28.632Z,100111.22
2022-09-07T09:09:45.534Z,100107.69
2022-09-07T09:13:02.905Z,100100.75
2022-09-07T09:16:13.255Z,100099.94
2022-09-07T09:20:00.689Z,100097.53
2022-09-07T09:23:14.935Z,100091.37
2022-09-07T09:26:24.404Z,100097.53
2022-09-07T09:29:27.032Z,100098.19
2022-09-07T09:32:35.108Z,100096.12
2022-09-07T09:35:38.848Z,100091.37
2022-09-07T09:38:43.604Z,100098.56
2022-09-07T09:41:46.305Z,100092.75
2022-09-07T09:44:50.197Z,100100.53
2022-09-07T09:47:54.744Z,100091.87
2022-09-07T09:54:33.127Z,100087.87
2022-09-07T10:01:35.936Z,100074.28
2022-09-07T10:04:39.313Z,100068.03
2022-09-07T10:07:51.478Z,100068.22
2022-09-07T10:11:00.700Z,100062.88
2022-09-07T10:14:04.389Z,100066.81
2022-09-07T10:17:18.639Z,100070.94
2022-09-07T10:20:37.807Z,100063.03
2022-09-07T10:23:40.829Z,100064.97
2022-09-07T10:26:44.827Z,100056.19
2022-09-07T10:29:47.737Z,100057.03
2022-09-07T10:32:56.843Z,100057.84
2022-09-07T10:36:27.879Z,100052.09
2022-09-07T10:40:05.248Z,100048.53
2022-09-07T10:43:26.318Z,100050.47
2022-09-07T10:53:42.320Z,100052.66
2022-09-07T10:56:52.835Z,100051.84
2022-09-07T11:00:09.875Z,100047.44
2022-09-07T11:03:28.861Z,100051.81
2022-09-07T11:06:48.938Z,100046.31
2022-09-07T11:09:59.454Z,100042.72
2022-09-07T11:13:04.879Z,100036.59
2022-09-07T11:16:50.597Z,100035.97
2022-09-07T11:20:04.091Z,100026.87
2022-09-07T11:23:24.564Z,100027.66
2022-09-07T11:26:51.277Z,100023.78
2022-09-07T11:30:04.842Z,100018.59
2022-09-07T11:33:29.711Z,100022.66
2022-09-07T11:36:37.729Z,100019.84
2022-09-07T11:39:46.345Z,100005.84
2022-09-07T11:42:52.764Z,100006.50
2022-09-07T11:45:57.263Z,99997.69
2022-09-07T11:49:04.483Z,100003.22
2022-09-07T11:52:31.516Z,99992.81
2022-09-07T11:55:37.733Z,99999.28
2022-09-07T11:59:11.960Z,99995.56
2022-09-07T12:02:58.406Z,99983.25
2022-09-07T12:06:45.906Z,99985.66
2022-09-07T12:09:50.934Z,99991.84
2022-09-07T12:12:56.754Z,99988.22
2022-09-07T12:16:27.758Z,99983.84
2022-09-07T12:19:30.649Z,99990.19
2022-09-07T12:22:34.364Z,99973.00
2022-09-07T12:25:37.493Z,99976.28
2022-09-07T12:28:39.978Z,99981.47
2022-09-07T12:32:00.033Z,99973.91
2022-09-07T12:35:29.960Z,99969.50
2022-09-07T12:38:34.014Z,99972.53
2022-09-07T12:45:30.994Z,99967.34
2022-09-07T12:48:50.174Z,99976.38
2022-09-07T12:52:31.484Z,99982.91
2022-09-07T12:59:20.298Z,99951.34
2022-09-07T13:02:27.810Z,99947.75
2022-09-07T13:05:52.720Z,99946.66
2022-09-07T13:08:55.522Z,99940.81
2022-09-07T13:12:00.257Z,99948.75
2022-09-07T13:15:02.766Z,99940.78
2022-09-07T13:18:06.028Z,99939.09
2022-09-07T13:21:08.467Z,99938.19
2022-09-07T13:27:55.013Z,99932.87
2022-09-07T13:31:01.098Z,99919.31
2022-09-07T13:34:32.196Z,99919.81
2022-09-07T13:37:44.617Z,99929.72
2022-09-07T13:40:48.513Z,99927.25
2022-09-07T13:43:57.127Z,99919.53
2022-09-07T13:47:45.294Z,99924.37
2022-09-07T13:51:25.999Z,99920.06
2022-09-07T13:54:50.464Z,99917.03
2022-09-07T13:58:12.937Z,99906.28
2022-09-07T14:01:25.037Z,99905.31
2022-09-07T14:04:44.287Z,99897.31
2022-09-07T14:07:47.426Z,99891.06
2022-09-07T14:10:50.507Z,99903.63
2022-09-07T14:14:16.357Z,99899.84
2022-09-07T14:17:19.617Z,99898.84
2022-09-07T14:20:23.417Z,99889.66
2022-09-07T14:23:31.683Z,99894.56
2022-09-07T14:26:34.450Z,99885.34
2022-09-07T14:29:37.200Z,99888.09
2022-09-07T14:32:40.288Z,99893.00
2022-09-07T14:35:43.446Z,99887.56
2022-09-07T14:42:15.528Z,99896.94
2022-09-07T14:45:21.927Z,99894.09
2022-09-07T14:48:32.350Z,99899.66
2022-09-07T14:51:36.812Z,99887.81
2022-09-07T14:54:39.966Z,99887.03
2022-09-07T14:57:42.694Z,99881.66
2022-09-07T15:04:18.613Z,99879.69
2022-09-07T15:07:28.904Z,99888.81
2022-09-07T15:10:35.604Z,99885.72
2022-09-07T15:13:40.829Z,99879.72
2022-09-07T15:16:44.771Z,99873.69
2022-09-07T15:19:50.309Z,99884.69
2022-09-07T15:22:53.097Z,99880.06
2022-09-07T15:25:55.892Z,99881.44
2022-09-07T15:29:13.954Z,99863.47
2022-09-07T15:32:18.144Z,99875.53
2022-09-07T15:35:20.863Z,99879.94
2022-09-07T15:41:46.193Z,99883.00
2022-09-07T15:44:50.305Z,99881.38
2022-09-07T15:47:53.617Z,99878.13
2022-09-07T15:52:04.918Z,99874.56
2022-09-07T15:54:30.139Z,99878.09
2022-09-07T15:57:50.201Z,99880.88
2022-09-07T16:04:18.409Z,99882.81
2022-09-07T16:07:22.143Z,99884.47
2022-09-07T16:10:25.817Z,99885.00
2022-09-07T16:13:31.476Z,99883.91
2022-09-07T16:19:57.624Z,99887.16
2022-09-07T16:23:16.783Z,99881.69
2022-09-07T16:26:23.322Z,99873.22
2022-09-07T16:29:26.530Z,99872.09
2022-09-07T16:32:44.803Z,99863.59
2022-09-07T16:36:02.279Z,99874.22
2022-09-07T16:39:04.911Z,99870.09
2022-09-07T16:42:07.827Z,99864.06
2022-09-07T16:48:35.150Z,99860.41
2022-09-07T16:51:39.623Z,99853.50
2022-09-07T16:54:42.888Z,99851.00
2022-09-07T17:01:10.792Z,99848.13
2022-09-07T17:04:13.551Z,99847.78
2022-09-07T17:07:16.401Z,99840.53
2022-09-07T17:10:18.829Z,99842.66
2022-09-07T17:13:21.587Z,99845.84
2022-09-07T17:16:27.147Z,99841.94
2022-09-07T17:19:30.465Z,99842.94
2022-09-07T17:22:33.101Z,99842.88
2022-09-07T17:25:35.931Z,99839.44
2022-09-07T17:28:39.115Z,99853.81
2022-09-07T17:35:05.128Z,99855.56
2022-09-07T17:41:34.548Z,99858.94
2022-09-07T17:44:38.423Z,99862.94
2022-09-07T17:47:41.095Z,99866.41
2022-09-07T17:50:43.883Z,99864.97
2022-09-07T17:53:46.563Z,99863.25
2022-09-07T17:56:49.384Z,99871.81
2022-09-07T18:03:14.848Z,99881.47
2022-09-07T18:06:17.827Z,99891.47
2022-09-07T18:09:20.659Z,99885.13
2022-09-07T18:12:23.254Z,99903.03
2022-09-07T18:15:26.104Z,99898.34
2022-09-07T18:18:30.183Z,99907.13
2022-09-07T18:21:35.231Z,99907.63
2022-09-07T18:24:37.771Z,99913.81
2022-09-07T18:27:40.910Z,99917.53
2022-09-07T18:30:43.460Z,99909.81
2022-09-07T18:33:47.573Z,99910.41
2022-09-07T18:36:50.686Z,99907.28
2022-09-07T18:39:54.500Z,99916.16
2022-09-07T18:42:57.506Z,99921.53
2022-09-07T18:46:13.508Z,99910.81
2022-09-07T18:49:16.089Z,99913.78
2022-09-07T18:55:43.888Z,99905.91
2022-09-07T18:58:47.677Z,99902.28
2022-09-07T19:01:50.457Z,99898.34
2022-09-07T19:08:16.313Z,99900.00
2022-09-07T19:11:22.156Z,99892.56
2022-09-07T19:14:24.641Z,99894.94
2022-09-07T19:17:27.576Z,99884.50
2022-09-07T19:20:30.185Z,99884.97
2022-09-07T19:23:33.216Z,99883.22
2022-09-07T19:26:38.074Z,99879.34
2022-09-07T19:29:40.891Z,99881.16
2022-09-07T19:32:43.583Z,99883.28
2022-09-07T19:35:46.542Z,99881.41
2022-09-07T19:38:49.541Z,99885.91
2022-09-07T19:41:52.943Z,99880.72
2022-09-07T19:44:55.427Z,99886.63
2022-09-07T19:47:58.443Z,99878.03
2022-09-07T19:51:06.153Z,99870.94
2022-09-07T19:54:10.363Z,99870.34
2022-09-07T19:57:12.872Z,99872.72
2022-09-07T20:00:15.925Z,99880.84
2022-09-07T20:03:18.756Z,99872.81
2022-09-07T20:06:21.288Z,99880.13
2022-09-07T20:09:25.841Z,99879.06
2022-09-07T20:12:28.298Z,99878.97
2022-09-07T20:15:31.226Z,99871.66
2022-09-07T20:18:35.702Z,99877.56
2022-09-07T20:21:38.454Z,99879.09
2022-09-07T20:24:41.083Z,99876.84
2022-09-07T20:27:43.913Z,99884.63
2022-09-07T20:30:46.452Z,99891.56
2022-09-07T20:33:50.751Z,99889.56
2022-09-07T20:36:53.781Z,99883.56
2022-09-07T20:39:56.614Z,99881.31
2022-09-07T20:42:59.201Z,99883.91
2022-09-07T20:46:03.109Z,99870.72
2022-09-07T20:49:05.757Z,99874.72
2022-09-07T20:52:08.478Z,99876.84
2022-09-07T20:55:11.066Z,99880.84
2022-09-07T20:58:13.894Z,99879.69
2022-09-07T21:01:18.101Z,99875.75
2022-09-07T21:04:21.053Z,99870.22
2022-09-07T21:07:23.591Z,99866.94
2022-09-07T21:10:26.975Z,99871.75
2022-09-07T21:13:29.484Z,99866.19
2022-09-07T21:16:32.814Z,99864.41
2022-09-07T21:19:36.871Z,99859.94
2022-09-07T21:22:39.647Z,99861.22
2022-09-07T21:25:43.977Z,99857.31
2022-09-07T21:28:46.751Z,99866.13
2022-09-07T21:31:49.625Z,99864.34
2022-09-07T21:34:52.403Z,99863.41
2022-09-07T21:37:54.863Z,99866.19
2022-09-07T21:40:57.774Z,99866.06
2022-09-07T21:44:02.160Z,99862.63
2022-09-07T21:47:05.136Z,99867.88
2022-09-07T21:50:08.069Z,99866.34
2022-09-07T21:53:11.037Z,99853.03
2022-09-07T21:56:14.321Z,99860.19
2022-09-07T21:59:17.094Z,99858.78
2022-09-07T22:02:19.733Z,99856.97
2022-09-07T22:05:22.558Z,99859.50
2022-09-07T22:08:25.107Z,99856.19
2022-09-07T22:11:29.046Z,99853.94
2022-09-07T22:14:31.721Z,99851.69
2022-09-07T22:17:34.531Z,99850.50
2022-09-07T22:20:37.055Z,99863.66
2022-09-07T22:23:42.860Z,99865.75
2022-09-07T22:26:46.412Z,99862.44
2022-09-07T22:29:49.199Z,99861.25
2022-09-07T22:32:51.866Z,99869.34
2022-09-07T22:35:54.634Z,99865.69
2022-09-07T22:38:58.903Z,99868.84
2022-09-07T22:42:01.674Z,99862.81
2022-09-07T22:45:05.751Z,99870.75
2022-09-07T22:48:08.551Z,99873.47
2022-09-07T22:51:11.800Z,99867.69
2022-09-07T22:54:14.597Z,99859.22
2022-09-07T22:57:17.148Z,99856.75
2022-09-07T23:00:20.087Z,99851.78
2022-09-07T23:03:22.590Z,99845.41
2022-09-07T23:06:26.525Z,99839.88
2022-09-07T23:09:29.087Z,99846.97
2022-09-07T23:12:31.864Z,99842.00
2022-09-07T23:15:36.244Z,99836.22
2022-09-07T23:18:42.880Z,99832.28
2022-09-07T23:21:45.587Z,99836.25
2022-09-07T23:24:48.337Z,99826.13
2022-09-07T23:27:50.848Z,99822.84
2022-09-07T23:30:53.753Z,99817.87
2022-09-07T23:33:57.491Z,99819.16
2022-09-07T23:37:00.304Z,99820.66
2022-09-07T23:40:03.817Z,99810.53
2022-09-07T23:43:06.591Z,99805.13
2022-09-07T23:46:10.470Z,99798.28
2022-09-07T23:49:13.251Z,99792.94
2022-09-07T23:52:15.722Z,99791.53
2022-09-07T23:55:18.719Z,99790.91
2022-09-07T23:58:21.988Z,99801.78
